Time;durP1;ratioP1;P1;durP2;ratioP2;P2;SDS_P1;SDS_P2;PMS_P1;PMS_P2;Temp;Humidity;BMP_temperature;BMP_pressure;BME280_temperature;BME280_humidity;BME280_pressure;Samples;Min_cycle;Max_cycle;Signal;HPM_P1;HPM_P2
2022/04/30 00:03:01;;;;;;;13.40;6.10;;;;;;;1.03;78.79;101046.20;105111;1274;74860;-70
2022/04/30 00:05:48;;;;;;;11.80;5.30;;;;;;;1.01;78.68;101046.40;104872;1274;59732;-70
2022/04/30 00:08:38;;;;;;;14.60;6.10;;;;;;;1.01;78.36;101045.55;105091;1274;60548;-71
2022/04/30 00:11:26;;;;;;;12.90;5.30;;;;;;;1.00;78.10;101037.17;104791;1274;74720;-71
2022/04/30 00:14:14;;;;;;;12.20;5.00;;;;;;;0.99;77.80;101035.61;105018;1274;66839;-70
2022/04/30 00:17:04;;;;;;;14.80;5.80;;;;;;;0.98;77.95;101033.55;104974;1274;73159;-70
2022/04/30 00:19:52;;;;;;;15.20;5.70;;;;;;;0.96;77.76;101028.52;104841;1274;59669;-66
2022/04/30 00:22:40;;;;;;;15.80;5.50;;;;;;;0.92;77.42;101029.12;104872;1274;61651;-69
2022/04/30 00:25:28;;;;;;;12.60;5.60;;;;;;;0.88;77.46;101034.48;105085;1274;74401;-68
2022/04/30 00:28:19;;;;;;;14.00;5.40;;;;;;;0.82;77.59;101036.17;105235;1274;67864;-69
2022/04/30 00:31:09;;;;;;;11.40;5.00;;;;;;;0.77;77.59;101042.39;104770;1274;74494;-70
2022/04/30 00:33:57;;;;;;;12.20;4.60;;;;;;;0.71;77.66;101038.15;104842;1274;59656;-69
2022/04/30 00:36:45;;;;;;;13.30;5.40;;;;;;;0.66;77.71;101039.83;104773;1274;60479;-68
2022/04/30 00:39:35;;;;;;;14.10;5.50;;;;;;;0.62;77.61;101040.79;105184;1272;73765;-69
2022/04/30 00:42:24;;;;;;;11.70;5.20;;;;;;;0.60;77.66;101039.61;104838;1274;69355;-69
2022/04/30 00:45:12;;;;;;;13.10;5.90;;;;;;;0.59;77.99;101037.54;104908;1274;73312;-69
2022/04/30 00:48:00;;;;;;;10.50;4.30;;;;;;;0.59;78.09;101037.18;104846;1274;59659;-69
2022/04/30 00:50:51;;;;;;;10.00;3.70;;;;;;;0.60;77.99;101037.68;105132;1274;61615;-66
2022/04/30 00:53:48;;;;;;;10.00;4.20;;;;;;;0.61;77.66;101038.02;104899;1274;74974;-69
2022/04/30 00:56:47;;;;;;;10.30;3.90;;;;;;;0.63;77.58;101035.69;104741;1277;69643;-68
2022/04/30 00:59:40;;;;;;;9.10;3.80;;;;;;;0.63;77.51;101032.39;104519;1276;73339;-71
2022/04/30 01:02:32;;;;;;;8.60;2.90;;;;;;;0.63;77.39;101031.69;104480;1277;59804;-69
2022/04/30 01:05:38;;;;;;;8.40;3.20;;;;;;;0.60;77.32;101031.92;104502;1278;62050;-70
2022/04/30 01:08:28;;;;;;;7.60;3.10;;;;;;;0.58;77.36;101029.00;104692;1276;73774;-69
2022/04/30 01:11:16;;;;;;;7.80;2.70;;;;;;;0.55;77.35;101027.49;104861;1276;69178;-68
2022/04/30 01:14:04;;;;;;;9.90;3.00;;;;;;;0.52;77.43;101025.80;104526;1276;71825;-69
2022/04/30 01:16:56;;;;;;;8.70;2.70;;;;;;;0.48;77.65;101023.27;104750;1276;59747;-70
2022/04/30 01:19:47;;;;;;;7.70;2.80;;;;;;;0.44;77.91;101022.98;104560;1276;60250;-68
2022/04/30 01:23:03;;;;;;;7.90;2.90;;;;;;;0.41;77.94;101024.09;104570;1276;73584;-70
2022/04/30 01:25:52;;;;;;;9.70;3.10;;;;;;;0.39;78.07;101021.35;104442;1278;67560;-68
2022/04/30 01:28:43;;;;;;;8.30;3.30;;;;;;;0.39;78.34;101018.04;104716;1274;73611;-66
2022/04/30 01:37:45;;;;;;;7.30;3.00;;;;;;;0.43;78.61;101023.89;104866;1274;73028;-70
2022/04/30 01:40:34;;;;;;;9.60;3.00;;;;;;;0.45;78.69;101026.12;104877;1274;68436;-66
2022/04/30 01:43:22;;;;;;;8.50;3.00;;;;;;;0.45;78.66;101024.20;104779;1274;73061;-70
2022/04/30 01:46:10;;;;;;;8.70;2.80;;;;;;;0.43;78.64;101025.10;104720;1274;59730;-67
2022/04/30 01:48:58;;;;;;;9.60;2.60;;;;;;;0.41;78.62;101021.65;104836;1274;60338;-68
2022/04/30 01:51:50;;;;;;;8.20;2.80;;;;;;;0.38;78.72;101023.64;104882;1274;74708;-67
2022/04/30 01:54:39;;;;;;;8.20;2.60;;;;;;;0.33;78.71;101020.25;104804;1274;68406;-69
2022/04/30 01:57:28;;;;;;;8.30;3.10;;;;;;;0.29;78.68;101025.23;104830;1274;74485;-66
2022/04/30 02:00:20;;;;;;;6.90;2.50;;;;;;;0.25;78.93;101024.41;105005;1273;59686;-69
2022/04/30 02:03:12;;;;;;;7.90;2.50;;;;;;;0.22;79.24;101024.30;104843;1274;60385;-67
2022/04/30 02:06:00;;;;;;;8.20;2.30;;;;;;;0.21;79.51;101024.33;104743;1274;74455;-68
2022/04/30 02:08:49;;;;;;;7.70;2.70;;;;;;;0.21;79.82;101021.18;105026;1274;69579;-68
2022/04/30 02:11:38;;;;;;;9.60;3.30;;;;;;;0.22;79.98;101018.36;104960;1274;73291;-68
2022/04/30 02:14:30;;;;;;;10.00;3.20;;;;;;;0.24;79.93;101016.05;104950;1274;59806;-69
2022/04/30 02:17:25;;;;;;;9.00;2.70;;;;;;;0.26;79.92;101018.10;104951;1274;60287;-71
2022/04/30 02:20:49;;;;;;;8.70;2.80;;;;;;;0.26;79.67;101015.49;104745;1274;72367;-71
2022/04/30 02:23:30;;;;;;;7.90;2.50;;;;;;;0.26;79.69;101016.18;104815;1274;68726;-68
2022/04/30 02:26:20;;;;;;;8.20;2.70;;;;;;;0.25;79.80;101014.13;104957;1274;71662;-69
2022/04/30 02:29:08;;;;;;;7.20;2.50;;;;;;;0.24;79.75;101012.40;104528;1274;59769;-67
2022/04/30 02:31:56;;;;;;;7.40;2.60;;;;;;;0.20;79.67;101010.39;104959;1273;61300;-68
2022/04/30 02:34:44;;;;;;;8.30;2.70;;;;;;;0.14;79.65;101005.08;105008;1274;72890;-70
2022/04/30 02:37:33;;;;;;;7.60;2.70;;;;;;;0.11;79.64;101002.35;104937;1274;67101;-68
2022/04/30 02:40:24;;;;;;;8.60;2.60;;;;;;;0.08;79.94;101004.14;104817;1274;73197;-69
2022/04/30 02:43:18;;;;;;;10.20;2.70;;;;;;;0.08;80.12;100998.39;104797;1274;59768;-69
2022/04/30 02:46:06;;;;;;;7.80;2.60;;;;;;;0.07;80.18;100997.02;104821;1274;60932;-70
2022/04/30 02:48:54;;;;;;;8.30;2.70;;;;;;;0.08;80.34;100995.60;105000;1274;73450;-69
2022/04/30 02:51:42;;;;;;;7.00;2.10;;;;;;;0.09;80.58;100991.20;104962;1274;68696;-69
2022/04/30 02:54:34;;;;;;;7.00;2.60;;;;;;;0.12;80.21;100991.67;105051;1274;73341;-72
2022/04/30 02:57:24;;;;;;;7.90;2.10;;;;;;;0.12;80.00;100988.17;105144;1272;59918;-68
2022/04/30 03:00:12;;;;;;;6.70;2.40;;;;;;;0.12;79.81;100984.36;104863;1274;59663;-67
2022/04/30 03:03:24;;;;;;;8.10;3.30;;;;;;;0.09;79.98;100981.45;104785;1274;72408;-70
2022/04/30 03:06:13;;;;;;;10.10;4.00;;;;;;;0.05;80.03;100985.19;104886;1274;68422;-64
2022/04/30 03:09:03;;;;;;;8.80;3.50;;;;;;;0.01;80.00;100987.01;105039;1274;74237;-69
2022/04/30 03:11:51;;;;;;;9.20;2.90;;;;;;;-0.02;79.83;100983.05;104954;1273;59705;-69
2022/04/30 03:14:41;;;;;;;7.70;2.90;;;;;;;-0.05;79.75;100980.31;105040;1274;59649;-68
2022/04/30 03:23:44;;;;;;;11.10;3.40;;;;;;;-0.04;80.37;100973.50;105040;1274;71940;-70
2022/04/30 03:26:32;;;;;;;10.10;3.30;;;;;;;-0.01;80.31;100973.96;104820;1274;59657;-74
2022/04/30 03:29:21;;;;;;;9.30;2.80;;;;;;;0.02;80.23;100970.77;104822;1274;59532;-68
2022/04/30 03:32:10;;;;;;;9.80;3.10;;;;;;;0.05;80.27;100970.00;104926;1274;71455;-69
2022/04/30 03:34:58;;;;;;;7.60;2.60;;;;;;;0.09;79.97;100974.11;105004;1274;67565;-70
2022/04/30 03:37:46;;;;;;;8.80;2.70;;;;;;;0.12;80.10;100974.06;104716;1274;72501;-65
2022/04/30 03:40:38;;;;;;;6.60;2.30;;;;;;;0.13;79.92;100975.27;104985;1274;59689;-68
2022/04/30 03:43:26;;;;;;;7.60;2.40;;;;;;;0.14;79.78;100977.35;104795;1274;59595;-72
2022/04/30 03:46:15;;;;;;;7.00;2.60;;;;;;;0.15;79.77;100978.53;105103;1274;75055;-69
2022/04/30 03:49:04;;;;;;;8.00;2.70;;;;;;;0.17;79.71;100980.07;104818;1272;68121;-70
2022/04/30 03:51:54;;;;;;;7.60;2.70;;;;;;;0.19;79.78;100980.38;104916;1274;74596;-67
2022/04/30 03:54:42;;;;;;;7.70;2.60;;;;;;;0.22;79.97;100980.49;104207;1274;1003570;-69
2022/04/30 03:57:31;;;;;;;8.00;2.50;;;;;;;0.28;80.17;100979.86;105086;1274;59505;-66
2022/04/30 04:00:19;;;;;;;7.60;2.70;;;;;;;0.34;80.03;100980.25;104834;1274;72251;-69
2022/04/30 04:03:08;;;;;;;7.10;2.50;;;;;;;0.43;80.03;100979.19;104926;1274;69553;-69
2022/04/30 04:05:57;;;;;;;7.10;2.50;;;;;;;0.52;80.03;100982.32;104887;1274;72522;-69
2022/04/30 04:08:49;;;;;;;9.20;3.40;;;;;;;0.60;79.74;100979.36;104828;1274;59659;-69
2022/04/30 04:11:38;;;;;;;9.50;3.10;;;;;;;0.66;79.41;100982.20;104935;1274;62021;-67
2022/04/30 04:17:40;;;;;;;8.30;2.90;;;;;;;0.83;80.27;100989.67;105049;1273;68655;-70
2022/04/30 04:20:28;;;;;;;8.00;2.80;;;;;;;0.90;80.61;100991.61;104870;1274;73316;-71
2022/04/30 04:23:16;;;;;;;8.00;3.00;;;;;;;0.98;80.84;100992.12;104884;1273;59671;-70
2022/04/30 04:26:04;;;;;;;9.00;3.30;;;;;;;1.07;81.21;100989.64;104898;1274;59532;-71
2022/04/30 04:28:52;;;;;;;7.60;3.50;;;;;;;1.19;81.93;100987.96;104863;1274;73430;-70
2022/04/30 04:31:41;;;;;;;8.50;3.50;;;;;;;1.32;82.80;100987.11;104892;1273;66559;-69
2022/04/30 04:34:29;;;;;;;9.50;4.40;;;;;;;1.53;86.80;100985.22;104875;1274;72566;-71
2022/04/30 04:37:17;;;;;;;8.30;3.60;;;;;;;1.79;87.91;100986.29;104878;1274;59701;-71
2022/04/30 04:40:08;;;;;;;9.30;3.80;;;;;;;2.02;87.00;100978.85;104866;1274;60243;-73
2022/04/30 04:42:56;;;;;;;22.20;5.60;;;;;;;2.23;86.29;100982.27;104978;1274;73945;-69
2022/04/30 04:45:44;;;;;;;24.10;5.40;;;;;;;2.44;86.07;100981.50;104778;1274;67905;-70
2022/04/30 04:48:33;;;;;;;16.00;5.20;;;;;;;2.67;86.52;100978.04;104798;1274;71432;-69
2022/04/30 04:51:21;;;;;;;16.30;5.00;;;;;;;2.91;87.88;100978.86;104861;1274;59766;-70
2022/04/30 04:54:09;;;;;;;15.00;4.20;;;;;;;3.17;89.43;100978.55;104884;1273;60998;-71
2022/04/30 04:56:57;;;;;;;14.50;4.00;;;;;;;3.41;88.77;100976.55;104797;1273;73968;-70
2022/04/30 04:59:45;;;;;;;10.50;3.20;;;;;;;3.65;89.75;100981.22;104896;1274;69361;-70
2022/04/30 05:02:33;;;;;;;9.70;3.50;;;;;;;3.88;89.82;100979.69;104898;1274;73722;-72
2022/04/30 05:05:22;;;;;;;10.70;3.50;;;;;;;4.11;89.58;100979.40;105237;1274;59996;-69
2022/04/30 05:08:10;;;;;;;10.90;3.40;;;;;;;4.35;89.17;100978.17;104848;1274;59590;-73
2022/04/30 05:10:58;;;;;;;10.20;3.60;;;;;;;4.60;88.55;100972.30;105051;1274;73687;-71
2022/04/30 05:13:46;;;;;;;8.10;3.00;;;;;;;4.87;87.43;100976.38;105228;1274;67483;-71
2022/04/30 05:16:34;;;;;;;10.70;3.00;;;;;;;5.17;86.69;100973.63;105058;1274;73725;-71
2022/04/30 05:19:22;;;;;;;9.40;3.60;;;;;;;5.57;85.32;100969.30;104758;1272;61083;-72
2022/04/30 05:22:11;;;;;;;9.30;3.20;;;;;;;6.45;82.57;100957.87;104806;1274;60230;-70
2022/04/30 05:25:05;;;;;;;10.50;3.70;;;;;;;8.00;78.53;100956.60;104868;1274;72936;-70
2022/04/30 05:27:53;;;;;;;10.20;2.80;;;;;;;9.96;72.65;100951.93;104812;1273;68938;-73
2022/04/30 05:30:41;;;;;;;8.70;3.00;;;;;;;11.88;66.36;100950.38;104892;1273;73176;-70
2022/04/30 05:33:35;;;;;;;9.00;2.80;;;;;;;13.66;59.87;100945.58;104827;1274;59763;-72
2022/04/30 05:36:22;;;;;;;10.10;3.00;;;;;;;15.30;53.81;100939.45;104929;1274;61183;-69
2022/04/30 05:39:11;;;;;;;7.80;2.20;;;;;;;16.88;48.64;100932.67;104815;1274;74169;-71
2022/04/30 05:41:58;;;;;;;9.80;2.70;;;;;;;18.24;44.46;100924.67;104844;1274;68619;-73
2022/04/30 05:44:47;;;;;;;9.20;2.40;;;;;;;19.48;40.25;100923.66;105169;1274;72690;-72
2022/04/30 05:47:36;;;;;;;9.20;2.00;;;;;;;20.73;37.69;100919.12;105304;1274;59664;-73
2022/04/30 05:50:30;;;;;;;10.40;2.40;;;;;;;21.70;34.01;100920.33;105011;1274;62055;-72
2022/04/30 05:53:19;;;;;;;6.70;1.90;;;;;;;22.53;31.30;100915.70;104905;1274;72600;-74
2022/04/30 05:56:07;;;;;;;8.10;2.20;;;;;;;23.12;29.66;100912.49;104788;1274;68253;-73
2022/04/30 05:58:58;;;;;;;8.60;1.90;;;;;;;23.69;28.47;100908.78;104829;1274;72861;-69
2022/04/30 06:01:46;;;;;;;13.60;7.90;;;;;;;24.04;27.07;100909.71;105191;1274;59774;-70
2022/04/30 06:04:39;;;;;;;13.90;8.30;;;;;;;24.27;26.40;100913.61;104928;1273;60468;-70
2022/04/30 06:07:30;;;;;;;10.30;4.20;;;;;;;24.50;26.01;100911.54;104736;1273;72981;-68
2022/04/30 06:10:36;;;;;;;12.60;8.70;;;;;;;24.80;24.90;100914.93;105142;1274;66793;-71
2022/04/30 06:13:24;;;;;;;7.40;1.80;;;;;;;25.05;24.39;100907.66;104864;1274;72984;-70
2022/04/30 06:16:12;;;;;;;6.40;1.50;;;;;;;25.12;24.11;100908.73;104989;1274;59795;-72
2022/04/30 06:19:00;;;;;;;5.40;1.30;;;;;;;25.35;23.26;100910.00;104987;1274;60495;-71
2022/04/30 06:22:03;;;;;;;6.10;1.50;;;;;;;25.57;22.61;100906.88;104785;1274;71942;-71
2022/04/30 06:24:54;;;;;;;7.10;1.40;;;;;;;25.55;22.28;100908.23;104974;1273;67328;-70
2022/04/30 06:27:42;;;;;;;7.40;1.30;;;;;;;25.96;22.36;100904.42;104977;1273;72769;-69
2022/04/30 06:30:30;;;;;;;9.80;3.40;;;;;;;26.36;21.21;100911.90;104831;1274;59567;-72
2022/04/30 06:33:18;;;;;;;7.20;1.50;;;;;;;26.06;20.40;100917.19;105268;1274;62212;-71
2022/04/30 06:36:07;;;;;;;8.70;1.80;;;;;;;25.98;21.33;100914.08;105025;1274;73346;-69
2022/04/30 06:38:55;;;;;;;6.00;1.30;;;;;;;26.26;21.08;100907.34;105056;1274;68138;-70
2022/04/30 06:41:44;;;;;;;6.60;1.40;;;;;;;26.61;20.41;100902.29;105119;1274;72646;-71
2022/04/30 06:44:34;;;;;;;6.30;1.50;;;;;;;26.80;20.29;100898.13;104814;1273;59650;-73
2022/04/30 06:47:22;;;;;;;6.60;1.50;;;;;;;27.28;20.25;100896.73;105042;1272;60550;-71
2022/04/30 06:50:10;;;;;;;9.00;1.60;;;;;;;27.39;19.41;100898.73;104919;1274;75106;-73
2022/04/30 06:59:12;;;;;;;7.60;2.00;;;;;;;28.11;19.12;100886.14;105163;1272;59674;-70
2022/04/30 07:02:00;;;;;;;6.80;1.90;;;;;;;28.63;18.75;100886.35;104990;1274;59644;-71
2022/04/30 07:04:51;;;;;;;7.60;1.80;;;;;;;28.87;18.26;100886.89;105237;1273;74337;-68
2022/04/30 07:07:39;;;;;;;7.30;1.90;;;;;;;29.11;17.69;100884.82;104915;1274;68295;-70
2022/04/30 07:10:30;;;;;;;7.10;2.20;;;;;;;29.15;17.60;100883.36;104983;1274;74425;-73
2022/04/30 07:13:18;;;;;;;9.00;2.10;;;;;;;28.68;17.32;100888.67;105086;1274;59762;-69
2022/04/30 07:16:06;;;;;;;6.70;1.90;;;;;;;28.41;17.61;100885.67;105174;1274;60371;-73
2022/04/30 07:18:54;;;;;;;8.30;2.20;;;;;;;28.26;17.47;100882.71;105025;1273;73717;-69
2022/04/30 07:21:41;;;;;;;8.50;4.00;;;;;;;28.08;17.75;100882.19;105033;1274;68600;-70
2022/04/30 07:24:33;;;;;;;7.90;2.30;;;;;;;28.31;17.84;100876.39;105125;1274;73501;-71
2022/04/30 07:27:21;;;;;;;8.50;2.20;;;;;;;28.34;17.30;100873.89;105162;1274;59765;-73
2022/04/30 07:30:09;;;;;;;8.60;2.80;;;;;;;28.38;17.13;100877.70;105085;1273;59764;-71
2022/04/30 07:32:57;;;;;;;10.30;2.40;;;;;;;27.98;17.19;100881.71;105173;1273;74607;-69
2022/04/30 07:35:45;;;;;;;6.40;2.30;;;;;;;27.89;16.96;100884.51;105698;1274;67184;-71
2022/04/30 07:38:33;;;;;;;7.90;2.50;;;;;;;27.72;17.08;100885.67;105365;1273;72779;-70
2022/04/30 07:41:21;;;;;;;8.20;2.40;;;;;;;27.13;17.27;100883.64;105200;1274;59772;-71
2022/04/30 07:44:10;;;;;;;8.90;2.40;;;;;;;26.65;17.91;100882.42;105375;1272;60639;-72
2022/04/30 07:46:58;;;;;;;7.70;2.40;;;;;;;26.54;18.09;100880.96;105005;1274;74341;-69
2022/04/30 07:49:46;;;;;;;10.90;2.60;;;;;;;26.69;18.10;100878.80;105052;1274;69672;-73
2022/04/30 07:52:34;;;;;;;6.60;2.40;;;;;;;26.11;18.04;100889.46;105216;1274;74500;-72
2022/04/30 07:55:23;;;;;;;7.30;2.50;;;;;;;25.57;18.34;100891.92;104869;1274;59766;-71
2022/04/30 07:58:11;;;;;;;7.20;2.20;;;;;;;25.61;18.52;100886.29;105244;1273;59598;-69
2022/04/30 08:00:59;;;;;;;7.80;2.20;;;;;;;25.48;18.21;100888.91;104967;1274;74575;-73
2022/04/30 08:03:47;;;;;;;6.30;2.00;;;;;;;25.60;17.99;100883.27;104889;1274;68616;-70
2022/04/30 08:06:35;;;;;;;7.30;2.10;;;;;;;25.69;17.98;100886.01;105098;1274;73058;-72
2022/04/30 08:09:23;;;;;;;7.10;2.00;;;;;;;25.84;17.38;100879.73;105100;1274;59771;-70
2022/04/30 08:12:11;;;;;;;7.00;2.20;;;;;;;26.09;17.52;100874.68;104934;1274;60519;-70
2022/04/30 08:14:59;;;;;;;11.50;7.70;;;;;;;26.46;17.27;100866.74;104825;1274;74713;-72
2022/04/30 08:17:47;;;;;;;6.50;2.20;;;;;;;26.68;16.69;100862.86;104863;1274;66713;-71
2022/04/30 08:20:37;;;;;;;7.00;2.20;;;;;;;26.58;15.45;100859.55;105131;1273;71326;-69
2022/04/30 08:23:25;;;;;;;5.70;2.10;;;;;;;26.67;15.05;100852.15;105134;1274;59749;-68
2022/04/30 08:26:13;;;;;;;6.80;2.60;;;;;;;26.94;15.36;100851.16;104862;1274;59649;-70
2022/04/30 08:29:01;;;;;;;5.70;1.60;;;;;;;27.19;14.96;100848.10;104900;1274;74783;-69
2022/04/30 08:31:50;;;;;;;6.00;1.60;;;;;;;27.36;15.78;100846.48;104883;1274;68711;-68
2022/04/30 08:34:39;;;;;;;7.00;1.70;;;;;;;27.19;15.44;100843.66;105142;1274;73452;-65
2022/04/30 08:37:31;;;;;;;5.40;1.50;;;;;;;27.15;15.31;100840.20;104814;1274;59650;-68
2022/04/30 08:40:19;;;;;;;5.70;1.60;;;;;;;26.95;14.14;100833.85;105045;1274;59511;-72
2022/04/30 08:43:11;;;;;;;6.90;1.80;;;;;;;26.42;14.17;100841.95;104757;1274;72688;-66
2022/04/30 08:46:01;;;;;;;6.60;1.60;;;;;;;26.69;14.92;100837.46;104984;1274;66963;-69
2022/04/30 08:48:49;;;;;;;7.70;1.70;;;;;;;26.86;15.00;100839.39;104783;1274;72530;-73
2022/04/30 08:51:40;;;;;;;8.90;2.10;;;;;;;27.11;15.62;100838.02;104777;1273;59749;-71
2022/04/30 08:54:28;;;;;;;8.00;1.90;;;;;;;27.44;16.74;100836.09;104719;1273;59708;-71
2022/04/30 08:57:16;;;;;;;7.80;2.10;;;;;;;27.70;16.67;100832.27;105180;1274;73877;-69
2022/04/30 09:00:05;;;;;;;6.50;1.80;;;;;;;27.17;14.98;100825.02;105105;1273;66776;-70
2022/04/30 09:02:58;;;;;;;8.20;1.90;;;;;;;27.00;15.72;100816.50;104723;1273;73477;-69
2022/04/30 09:05:48;;;;;;;6.70;1.80;;;;;;;26.72;16.08;100814.03;104860;1273;59649;-74
2022/04/30 09:08:47;;;;;;;7.90;2.20;;;;;;;26.72;17.23;100809.13;104768;1272;289534;-74
2022/04/30 09:11:38;;;;;;;7.50;2.30;;;;;;;26.93;17.26;100811.49;105047;1273;73110;-72
2022/04/30 09:14:28;;;;;;;7.50;2.10;;;;;;;27.02;17.14;100820.29;105056;1274;68645;-75
2022/04/30 09:17:17;;;;;;;6.80;2.10;;;;;;;27.35;17.39;100814.40;104885;1274;73772;-72
2022/04/30 09:20:06;;;;;;;10.90;3.60;;;;;;;27.49;17.04;100809.89;104947;1274;59698;-73
2022/04/30 09:22:53;;;;;;;13.10;3.40;;;;;;;27.44;16.57;100809.66;105059;1274;61237;-72
2022/04/30 09:25:52;;;;;;;10.70;3.60;;;;;;;27.69;16.73;100810.55;105209;1274;72301;-72
2022/04/30 09:28:42;;;;;;;9.50;2.70;;;;;;;27.84;16.24;100811.10;104922;1274;68327;-70
2022/04/30 09:31:30;;;;;;;9.70;2.40;;;;;;;27.82;16.58;100805.35;104904;1274;74226;-71
2022/04/30 09:37:43;;;;;;;7.80;2.10;;;;;;;27.76;16.49;100800.33;105090;1273;62026;-70
2022/04/30 09:40:36;;;;;;;7.40;2.10;;;;;;;27.65;16.67;100799.84;104817;1274;73077;-71
2022/04/30 09:43:32;;;;;;;6.50;1.90;;;;;;;27.37;16.65;100798.55;104985;1273;67817;-70
2022/04/30 09:46:25;;;;;;;7.50;2.10;;;;;;;26.86;17.35;100793.23;105116;1274;73386;-69
2022/04/30 09:55:30;;;;;;;8.70;1.50;;;;;;;27.16;17.08;100807.73;105036;1274;73604;-71
2022/04/30 09:58:25;;;;;;;6.40;1.60;;;;;;;26.88;14.92;100803.14;104813;1274;69843;-74
2022/04/30 10:01:13;;;;;;;6.20;1.90;;;;;;;27.31;16.90;100794.73;104722;1274;73342;-72
2022/04/30 10:04:28;;;;;;;6.10;1.80;;;;;;;27.76;17.12;100793.96;105040;1274;59654;-72
2022/04/30 10:07:19;;;;;;;8.10;2.00;;;;;;;28.08;16.50;100792.77;105071;1273;59537;-68
2022/04/30 10:10:28;;;;;;;6.00;1.70;;;;;;;28.18;16.22;100792.34;104936;1273;74129;-70
2022/04/30 10:13:31;;;;;;;6.70;1.70;;;;;;;28.12;15.22;100789.75;105119;1272;67739;-73
2022/04/30 10:16:30;;;;;;;8.60;1.90;;;;;;;27.87;15.33;100784.00;104736;1274;74260;-73
2022/04/30 10:19:21;;;;;;;6.10;1.70;;;;;;;27.64;16.57;100785.55;105010;1272;59848;-71
2022/04/30 10:22:15;;;;;;;6.70;1.70;;;;;;;27.60;16.80;100782.15;104935;1274;60125;-75
2022/04/30 10:25:04;;;;;;;6.10;1.80;;;;;;;27.44;16.75;100780.77;105028;1274;73274;-71
2022/04/30 10:27:52;;;;;;;7.80;1.70;;;;;;;27.54;17.02;100771.54;104975;1274;69485;-65
2022/04/30 10:30:41;;;;;;;5.70;1.60;;;;;;;27.63;16.84;100767.46;104777;1273;73881;-71
2022/04/30 10:33:31;;;;;;;5.80;1.60;;;;;;;27.60;16.92;100770.25;104900;1274;59754;-69
2022/04/30 10:36:21;;;;;;;8.50;2.20;;;;;;;27.68;15.97;100759.75;105076;1274;59735;-69
2022/04/30 10:39:19;;;;;;;6.10;1.90;;;;;;;26.92;17.56;100758.70;104900;1273;73957;-70
2022/04/30 10:42:08;;;;;;;7.50;1.70;;;;;;;26.55;18.00;100755.38;104891;1274;69488;-72
2022/04/30 10:44:56;;;;;;;6.40;2.00;;;;;;;26.32;18.32;100754.75;104813;1272;73491;-71
2022/04/30 10:47:58;;;;;;;7.00;1.70;;;;;;;26.33;18.23;100752.28;104851;1274;59647;-73
2022/04/30 10:51:05;;;;;;;8.40;2.10;;;;;;;26.72;18.47;100742.21;105037;1274;59749;-65
2022/04/30 10:53:53;;;;;;;8.20;2.00;;;;;;;27.02;17.25;100735.91;104899;1274;74751;-71
2022/04/30 10:56:42;;;;;;;7.70;2.00;;;;;;;27.27;16.72;100739.70;105182;1273;67494;-70
2022/04/30 10:59:30;;;;;;;6.20;1.50;;;;;;;27.48;17.27;100728.83;104858;1274;72383;-70
2022/04/30 11:02:18;;;;;;;9.10;2.10;;;;;;;27.76;16.99;100730.16;105017;1273;61064;-69
2022/04/30 11:05:19;;;;;;;6.10;1.60;;;;;;;28.11;16.78;100727.55;104835;1274;62030;-71
2022/04/30 11:08:07;;;;;;;7.20;2.10;;;;;;;28.44;16.59;100728.64;104992;1273;72761;-70
2022/04/30 11:10:55;;;;;;;7.20;1.80;;;;;;;28.75;16.59;100728.15;104806;1274;69712;-68
2022/04/30 11:13:43;;;;;;;7.00;2.10;;;;;;;28.63;16.21;100714.75;104733;1274;73393;-69
2022/04/30 11:16:41;;;;;;;6.60;1.70;;;;;;;28.42;15.98;100712.08;104746;1274;59760;-72
2022/04/30 11:19:29;;;;;;;7.10;1.70;;;;;;;28.10;16.00;100712.75;105026;1273;60398;-71
2022/04/30 11:22:17;;;;;;;6.60;1.60;;;;;;;27.77;16.27;100715.04;104724;1273;73712;-73
2022/04/30 11:25:06;;;;;;;8.00;1.70;;;;;;;27.40;16.72;100721.15;104823;1273;68525;-70
2022/04/30 11:27:58;;;;;;;9.40;1.70;;;;;;;27.13;17.08;100717.91;104989;1274;72241;-70
2022/04/30 11:30:47;;;;;;;8.10;1.80;;;;;;;26.78;17.51;100716.10;104774;1273;59694;-70
2022/04/30 11:33:37;;;;;;;5.70;1.50;;;;;;;26.25;17.42;100711.14;104784;1274;59688;-70
2022/04/30 11:36:25;;;;;;;8.20;1.60;;;;;;;25.88;17.86;100701.70;104927;1273;73738;-69
2022/04/30 11:39:16;;;;;;;6.70;1.70;;;;;;;25.45;18.25;100691.73;104839;1274;67294;-72
2022/04/30 11:42:05;;;;;;;5.40;1.60;;;;;;;24.77;18.55;100695.79;104965;1274;74415;-70
2022/04/30 11:44:54;;;;;;;7.80;1.50;;;;;;;24.27;19.21;100690.79;104728;1273;59763;-69
2022/04/30 11:47:48;;;;;;;5.20;1.40;;;;;;;23.96;18.95;100695.05;104788;1273;59644;-68
2022/04/30 11:50:40;;;;;;;9.50;1.90;;;;;;;23.51;19.33;100701.30;104746;1273;72403;-72
2022/04/30 11:53:29;;;;;;;6.90;1.60;;;;;;;22.92;19.76;100693.80;104903;1274;67069;-71
2022/04/30 11:56:17;;;;;;;6.40;1.60;;;;;;;22.36;20.19;100696.59;105029;1273;71766;-69
2022/04/30 11:59:09;;;;;;;8.60;1.60;;;;;;;21.74;21.10;100692.70;104835;1274;59798;-71
2022/04/30 12:02:08;;;;;;;7.10;1.60;;;;;;;21.14;21.70;100698.05;104969;1274;59619;-70
2022/04/30 12:05:04;;;;;;;6.80;1.50;;;;;;;20.67;22.21;100701.33;105092;1274;73970;-68
2022/04/30 12:08:04;;;;;;;5.90;1.60;;;;;;;20.30;22.78;100698.61;104768;1274;68512;-71
2022/04/30 12:10:57;;;;;;;6.10;1.40;;;;;;;20.17;22.96;100687.20;105133;1273;73190;-68
2022/04/30 12:14:17;;;;;;;6.60;1.40;;;;;;;20.05;22.99;100683.11;104931;1274;60460;-70
2022/04/30 12:17:07;;;;;;;8.80;1.70;;;;;;;19.95;23.33;100679.41;104662;1277;59657;-69
2022/04/30 12:26:17;;;;;;;6.90;1.70;;;;;;;19.70;24.32;100678.06;104780;1277;72450;-71
2022/04/30 12:29:23;;;;;;;6.40;1.20;;;;;;;19.60;24.39;100674.72;104419;1277;59834;-70
2022/04/30 12:32:11;;;;;;;6.50;1.30;;;;;;;19.47;24.98;100671.10;104451;1277;60353;-70
2022/04/30 12:35:01;;;;;;;7.60;1.50;;;;;;;19.29;25.44;100669.58;104386;1277;72465;-66
2022/04/30 12:37:49;;;;;;;6.40;1.50;;;;;;;19.08;25.77;100665.09;104357;1277;69590;-68
2022/04/30 12:40:41;;;;;;;6.70;1.40;;;;;;;18.83;26.03;100667.65;104359;1277;73217;-70
2022/04/30 12:43:31;;;;;;;6.90;1.50;;;;;;;18.66;26.07;100660.22;104424;1277;59957;-69
2022/04/30 12:46:21;;;;;;;7.90;1.50;;;;;;;18.42;26.55;100657.70;104692;1277;60660;-68
2022/04/30 12:49:13;;;;;;;8.30;1.50;;;;;;;18.23;27.05;100655.02;104356;1277;73581;-66
2022/04/30 12:52:00;;;;;;;5.00;1.40;;;;;;;18.07;27.49;100656.16;104508;1277;68145;-68
2022/04/30 12:54:50;;;;;;;6.60;1.50;;;;;;;17.99;27.16;100656.36;104702;1274;72474;-68
2022/04/30 12:57:38;;;;;;;5.50;1.50;;;;;;;17.86;27.21;100656.88;104973;1274;59628;-68
2022/04/30 13:00:27;;;;;;;9.20;1.80;;;;;;;17.69;27.21;100652.68;105278;1272;61764;-68
2022/04/30 13:03:14;;;;;;;5.50;1.40;;;;;;;17.50;27.45;100653.33;108019;1272;73206;-68
2022/04/30 13:06:04;;;;;;;5.70;1.40;;;;;;;17.19;27.88;100651.39;107671;1271;67500;-71
2022/04/30 13:15:07;;;;;;;5.50;1.30;;;;;;;17.19;28.44;100633.07;105299;1274;62338;-66
2022/04/30 13:17:56;;;;;;;6.80;1.30;;;;;;;17.19;28.63;100637.77;105091;1274;73588;-67
2022/04/30 13:20:44;;;;;;;6.10;1.20;;;;;;;17.20;28.49;100634.85;104965;1274;67577;-67
2022/04/30 13:23:32;;;;;;;7.50;1.50;;;;;;;17.30;28.63;100627.74;105028;1272;74846;-70
2022/04/30 13:26:20;;;;;;;5.50;1.20;;;;;;;17.47;28.49;100619.87;105077;1274;59664;-69
2022/04/30 13:29:11;;;;;;;5.40;1.40;;;;;;;17.52;28.15;100624.85;105026;1274;59512;-71
2022/04/30 13:31:59;;;;;;;5.90;1.40;;;;;;;17.54;27.88;100622.55;105021;1274;73917;-68
2022/04/30 13:34:47;;;;;;;6.00;1.50;;;;;;;17.60;27.59;100621.80;104906;1273;68472;-67
2022/04/30 13:37:40;;;;;;;7.30;1.70;;;;;;;17.50;27.23;100620.42;104875;1274;74250;-69
2022/04/30 13:40:29;;;;;;;9.10;1.50;;;;;;;17.43;27.51;100618.58;104892;1274;59712;-69
2022/04/30 13:43:17;;;;;;;5.50;1.70;;;;;;;17.30;28.04;100610.88;104950;1274;59588;-69
2022/04/30 13:46:05;;;;;;;6.60;2.00;;;;;;;17.21;28.68;100611.58;104811;1274;74326;-70
2022/04/30 13:48:53;;;;;;;7.20;1.80;;;;;;;17.17;28.82;100606.63;104708;1274;67710;-70
2022/04/30 13:51:42;;;;;;;20.40;13.30;;;;;;;17.12;28.81;100608.36;104891;1274;72353;-67